createdAt,value
2023-01-28T00:01:57.656Z,90.20
2023-01-28T00:04:24.912Z,90.20
2023-01-28T00:06:55.392Z,90.30
2023-01-28T00:09:22.268Z,90.20
2023-01-28T00:11:49.188Z,90.30
2023-01-28T00:14:16.089Z,90.30
2023-01-28T00:16:42.986Z,90.10
2023-01-28T00:19:09.997Z,90.00
2023-01-28T00:21:36.853Z,90.00
2023-01-28T00:24:03.945Z,90.00
2023-01-28T00:26:30.894Z,90.00
2023-01-28T00:28:57.926Z,89.80
2023-01-28T00:31:27.402Z,89.70
2023-01-28T00:33:55.662Z,89.60
2023-01-28T00:36:24.865Z,89.50
2023-01-28T00:38:54.112Z,89.30
2023-01-28T00:41:23.745Z,89.20
2023-01-28T00:43:51.690Z,89.20
2023-01-28T00:46:19.837Z,89.10
2023-01-28T00:48:47.345Z,89.00
2023-01-28T00:51:17.286Z,88.80
2023-01-28T00:53:44.715Z,88.70
2023-01-28T00:56:14.815Z,88.60
2023-01-28T00:58:42.823Z,88.60
2023-01-28T01:01:20.489Z,88.90
2023-01-28T01:03:48.247Z,89.10
2023-01-28T01:06:19.319Z,88.90
2023-01-28T01:08:50.776Z,89.00
2023-01-28T01:11:18.298Z,89.10
2023-01-28T01:13:49.583Z,89.20
2023-01-28T01:16:16.749Z,89.20
2023-01-28T01:18:44.493Z,89.10
2023-01-28T01:21:14.855Z,89.20
2023-01-28T01:23:42.482Z,90.00
2023-01-28T01:26:09.906Z,89.50
2023-01-28T01:28:37.158Z,89.60
2023-01-28T01:31:07.276Z,89.50
2023-01-28T01:33:34.746Z,89.60
2023-01-28T01:36:01.854Z,90.00
2023-01-28T01:38:29.958Z,89.90
2023-01-28T01:41:01.511Z,90.00
2023-01-28T01:43:50.073Z,90.00
2023-01-28T01:46:29.037Z,90.40
2023-01-28T01:48:58.200Z,90.10
2023-01-28T01:51:32.906Z,90.10
2023-01-28T01:54:01.553Z,90.20
2023-01-28T01:56:35.722Z,90.30
2023-01-28T01:59:03.874Z,90.30
2023-01-28T02:01:32.643Z,90.40
2023-01-28T02:04:08.285Z,90.60
2023-01-28T02:06:36.632Z,90.70
2023-01-28T02:09:06.816Z,90.80
2023-01-28T02:11:34.909Z,90.90
2023-01-28T02:14:05.036Z,91.00
2023-01-28T02:16:32.756Z,91.20
2023-01-28T02:18:59.681Z,91.20
2023-01-28T02:21:55.220Z,91.30
2023-01-28T02:24:27.286Z,91.30
2023-01-28T02:27:14.701Z,91.30
2023-01-28T02:30:11.422Z,91.30
2023-01-28T02:32:51.422Z,91.30
2023-01-28T02:35:37.854Z,91.20
2023-01-28T02:38:12.721Z,91.20
2023-01-28T02:41:01.907Z,91.20
2023-01-28T02:43:37.307Z,91.20
2023-01-28T02:46:29.985Z,91.10
2023-01-28T02:48:57.117Z,91.00
2023-01-28T02:51:44.022Z,90.90
2023-01-28T02:54:14.683Z,90.90
2023-01-28T02:56:59.285Z,90.90
2023-01-28T02:59:33.877Z,90.90
2023-01-28T03:02:13.047Z,90.90
2023-01-28T03:04:46.749Z,90.90
2023-01-28T03:07:16.206Z,91.00
2023-01-28T03:09:45.812Z,90.90
2023-01-28T03:12:36.341Z,90.80
2023-01-28T03:15:33.317Z,90.80
2023-01-28T03:18:27.731Z,90.80
2023-01-28T03:21:27.624Z,90.80
2023-01-28T03:24:17.845Z,90.80
2023-01-28T03:27:27.395Z,90.70
2023-01-28T03:30:15.986Z,90.50
2023-01-28T03:33:02.418Z,90.50
2023-01-28T03:35:50.598Z,90.40
2023-01-28T03:38:21.171Z,90.30
2023-01-28T03:40:53.209Z,90.20
2023-01-28T03:43:20.082Z,90.20
2023-01-28T03:45:51.326Z,90.20
2023-01-28T03:48:19.495Z,90.30
2023-01-28T03:50:48.170Z,90.30
2023-01-28T03:53:17.048Z,90.30
2023-01-28T03:55:44.936Z,90.30
2023-01-28T03:58:12.476Z,90.40
2023-01-28T04:00:43.470Z,90.40
2023-01-28T04:03:16.104Z,90.30
2023-01-28T04:05:47.911Z,90.30
2023-01-28T04:08:14.690Z,90.20
2023-01-28T04:10:41.797Z,90.30
2023-01-28T04:13:08.549Z,90.20
2023-01-28T04:15:36.612Z,90.10
2023-01-28T04:18:03.455Z,90.10
2023-01-28T04:20:30.570Z,90.00
2023-01-28T04:22:57.560Z,89.90
2023-01-28T04:25:24.375Z,89.80
2023-01-28T04:27:51.204Z,89.80
2023-01-28T04:30:18.425Z,90.00
2023-01-28T04:32:47.036Z,90.00
2023-01-28T04:35:14.577Z,89.80
2023-01-28T04:37:42.460Z,89.80
2023-01-28T04:40:10.704Z,89.70
2023-01-28T04:42:37.637Z,89.30
2023-01-28T04:45:05.082Z,89.00
2023-01-28T04:47:31.901Z,88.40
2023-01-28T04:49:58.674Z,88.20
2023-01-28T04:52:25.457Z,87.90
2023-01-28T04:54:52.222Z,87.60
2023-01-28T04:57:19.197Z,87.40
2023-01-28T04:59:45.971Z,87.20
2023-01-28T05:02:12.808Z,86.80
2023-01-28T05:04:39.684Z,86.80
2023-01-28T05:07:06.426Z,86.80
2023-01-28T05:09:33.345Z,86.60
2023-01-28T05:12:00.186Z,86.40
2023-01-28T05:14:27.200Z,86.20
2023-01-28T05:16:54.166Z,86.00
2023-01-28T05:19:20.972Z,85.90
2023-01-28T05:21:48.001Z,85.90
2023-01-28T05:24:15.802Z,86.20
2023-01-28T05:26:42.816Z,86.00
2023-01-28T05:29:09.918Z,86.10
2023-01-28T05:31:36.716Z,86.10
2023-01-28T05:34:03.766Z,86.20
2023-01-28T05:36:30.506Z,86.10
2023-01-28T05:38:57.363Z,85.90
2023-01-28T05:41:24.196Z,86.00
2023-01-28T05:43:50.969Z,86.00
2023-01-28T05:46:17.766Z,85.80
2023-01-28T05:48:45.672Z,85.80
2023-01-28T05:51:12.513Z,85.80
2023-01-28T05:53:39.413Z,85.50
2023-01-28T05:56:06.561Z,85.50
2023-01-28T05:58:33.525Z,85.20
2023-01-28T06:01:00.336Z,85.30
2023-01-28T06:03:27.111Z,85.50
2023-01-28T06:05:54.268Z,85.80
2023-01-28T06:08:21.122Z,85.90
2023-01-28T06:10:48.036Z,86.00
2023-01-28T06:13:15.073Z,86.10
2023-01-28T06:15:41.920Z,86.10
2023-01-28T06:18:08.798Z,85.90
2023-01-28T06:20:35.720Z,85.90
2023-01-28T06:23:02.646Z,86.10
2023-01-28T06:25:29.430Z,86.30
2023-01-28T06:27:56.189Z,86.30
2023-01-28T06:30:22.992Z,86.30
2023-01-28T06:32:57.452Z,86.10
2023-01-28T06:35:24.490Z,86.10
2023-01-28T06:37:52.608Z,86.20
2023-01-28T06:40:20.419Z,86.30
2023-01-28T06:42:47.285Z,86.30
2023-01-28T06:45:16.896Z,86.30
2023-01-28T06:47:43.900Z,86.40
2023-01-28T06:50:11.349Z,86.30
2023-01-28T06:52:38.287Z,86.00
2023-01-28T06:55:05.617Z,85.90
2023-01-28T06:57:32.385Z,86.00
2023-01-28T06:59:59.226Z,86.00
2023-01-28T07:02:27.694Z,86.10
2023-01-28T07:04:54.658Z,86.10
2023-01-28T07:07:21.468Z,86.30
2023-01-28T07:09:48.416Z,86.20
2023-01-28T07:12:15.708Z,86.30
2023-01-28T07:14:42.649Z,86.40
2023-01-28T07:17:09.528Z,86.40
2023-01-28T07:19:36.543Z,86.50
2023-01-28T07:22:03.582Z,86.40
2023-01-28T07:24:30.877Z,86.50
2023-01-28T07:26:57.709Z,86.60
2023-01-28T07:29:24.492Z,86.60
2023-01-28T07:31:51.389Z,86.60
2023-01-28T07:34:18.251Z,86.70
2023-01-28T07:36:45.067Z,86.80
2023-01-28T07:39:11.825Z,86.90
2023-01-28T07:41:38.657Z,87.10
2023-01-28T07:44:05.769Z,87.10
2023-01-28T07:46:32.638Z,87.00
2023-01-28T07:48:59.501Z,87.20
2023-01-28T07:51:26.276Z,87.10
2023-01-28T07:53:53.143Z,86.90
2023-01-28T07:56:20.000Z,87.00
2023-01-28T07:58:50.149Z,87.00
2023-01-28T08:01:18.435Z,86.80
2023-01-28T08:03:45.350Z,87.20
2023-01-28T08:06:12.237Z,86.40
2023-01-28T08:08:39.132Z,86.00
2023-01-28T08:11:10.859Z,86.10
2023-01-28T08:13:38.483Z,86.00
2023-01-28T08:16:05.782Z,86.00
2023-01-28T08:18:32.702Z,85.90
2023-01-28T08:21:00.278Z,86.20
2023-01-28T08:23:27.749Z,86.40
2023-01-28T08:25:55.223Z,86.30
2023-01-28T08:28:22.548Z,86.30
2023-01-28T08:30:49.602Z,86.20
2023-01-28T08:33:18.265Z,86.30
2023-01-28T08:35:45.685Z,87.30
2023-01-28T08:38:15.367Z,87.50
2023-01-28T08:40:42.378Z,86.40
2023-01-28T08:43:12.557Z,85.30
2023-01-28T08:45:42.428Z,84.00
2023-01-28T08:48:18.509Z,83.60
2023-01-28T08:51:02.657Z,83.00
2023-01-28T08:53:30.820Z,81.90
2023-01-28T08:55:57.757Z,81.90
2023-01-28T08:58:24.802Z,82.00
2023-01-28T09:00:51.634Z,82.10
2023-01-28T09:03:19.363Z,82.70
2023-01-28T09:05:46.187Z,82.20
2023-01-28T09:08:15.142Z,82.00
2023-01-28T09:10:42.584Z,81.90
2023-01-28T09:13:15.313Z,82.10
2023-01-28T09:15:43.008Z,82.20
2023-01-28T09:18:09.940Z,82.20
2023-01-28T09:20:37.920Z,82.50
2023-01-28T09:23:05.254Z,82.60
2023-01-28T09:25:32.175Z,82.70
2023-01-28T09:27:59.690Z,82.50
2023-01-28T09:30:27.061Z,82.30
2023-01-28T09:32:55.485Z,82.10
2023-01-28T09:35:22.425Z,81.90
2023-01-28T09:37:49.324Z,81.60
2023-01-28T09:40:21.004Z,80.80
2023-01-28T09:43:07.412Z,80.60
2023-01-28T09:45:45.990Z,80.70
2023-01-28T09:48:30.755Z,81.20
2023-01-28T09:50:57.808Z,81.40
2023-01-28T09:53:33.321Z,81.80
2023-01-28T09:56:12.906Z,85.30
2023-01-28T09:58:41.783Z,80.00
2023-01-28T10:01:17.869Z,73.30
2023-01-28T10:03:57.754Z,65.60
2023-01-28T10:06:43.386Z,64.90
2023-01-28T10:09:34.612Z,62.30
2023-01-28T10:12:01.520Z,58.30
2023-01-28T10:14:50.552Z,57.20
2023-01-28T10:17:23.944Z,54.20
2023-01-28T10:19:56.998Z,54.70
2023-01-28T10:22:32.300Z,53.50
2023-01-28T10:25:06.901Z,54.00
2023-01-28T10:27:36.165Z,54.60
2023-01-28T10:30:31.265Z,55.70
2023-01-28T10:33:06.550Z,55.20
2023-01-28T10:35:41.705Z,55.20
2023-01-28T10:38:14.647Z,55.30
2023-01-28T10:40:44.810Z,54.90
2023-01-28T10:43:11.694Z,55.30
2023-01-28T10:45:53.046Z,55.60
2023-01-28T10:48:29.324Z,54.50
2023-01-28T10:51:06.143Z,54.50
2023-01-28T10:53:42.463Z,54.50
2023-01-28T10:56:16.265Z,53.70
2023-01-28T10:59:00.663Z,52.10
2023-01-28T11:01:53.052Z,52.20
2023-01-28T11:04:27.440Z,52.30
2023-01-28T11:06:57.006Z,53.60
2023-01-28T11:09:37.937Z,53.70
2023-01-28T11:12:31.245Z,52.30
2023-01-28T11:15:03.895Z,52.00
2023-01-28T11:17:37.662Z,53.10
2023-01-28T11:20:26.906Z,51.70
2023-01-28T11:22:55.351Z,50.20
2023-01-28T11:25:36.062Z,50.50
2023-01-28T11:28:08.216Z,50.50
2023-01-28T11:30:40.257Z,49.80
2023-01-28T11:33:20.230Z,48.10
2023-01-28T11:35:58.668Z,46.70
2023-01-28T11:38:26.723Z,46.30
2023-01-28T11:40:55.800Z,45.80
2023-01-28T11:43:29.503Z,46.20
2023-01-28T11:46:13.102Z,44.60
2023-01-28T11:48:42.758Z,42.30
2023-01-28T11:51:43.281Z,41.00
2023-01-28T11:54:46.480Z,38.10
2023-01-28T11:57:28.424Z,38.10
2023-01-28T12:00:18.076Z,38.70
2023-01-28T12:03:03.626Z,38.70
2023-01-28T12:05:37.944Z,38.90
2023-01-28T12:08:41.704Z,40.40
2023-01-28T12:11:17.108Z,40.00
2023-01-28T12:13:57.331Z,40.30
2023-01-28T12:16:45.250Z,42.10
2023-01-28T12:19:32.363Z,42.80
2023-01-28T12:22:21.304Z,43.30
2023-01-28T12:25:15.025Z,42.80
2023-01-28T12:27:58.900Z,42.70
2023-01-28T12:30:48.278Z,43.40
2023-01-28T12:33:30.093Z,45.00
2023-01-28T12:36:22.625Z,46.10
2023-01-28T12:38:58.172Z,47.10
2023-01-28T12:41:32.574Z,47.70
2023-01-28T12:44:09.591Z,48.90
2023-01-28T12:46:39.169Z,49.90
2023-01-28T12:49:21.556Z,49.60
2023-01-28T12:51:57.070Z,49.70
2023-01-28T12:55:11.355Z,49.70
2023-01-28T12:57:38.798Z,50.90
2023-01-28T13:00:30.193Z,51.00
2023-01-28T13:03:12.055Z,51.10
2023-01-28T13:05:45.812Z,52.30
2023-01-28T13:08:25.280Z,52.30
2023-01-28T13:10:53.864Z,53.10
2023-01-28T13:13:36.393Z,53.00
2023-01-28T13:16:05.281Z,52.20
2023-01-28T13:18:52.546Z,51.90
2023-01-28T13:21:24.999Z,52.30
2023-01-28T13:24:09.407Z,52.90
2023-01-28T13:26:46.783Z,54.30
2023-01-28T13:29:31.087Z,55.10
2023-01-28T13:32:01.234Z,55.70
2023-01-28T13:34:43.664Z,56.20
2023-01-28T13:37:33.400Z,56.70
2023-01-28T13:40:06.309Z,57.60
2023-01-28T13:42:33.313Z,57.80
2023-01-28T13:45:22.194Z,57.60
2023-01-28T13:47:53.835Z,55.90
2023-01-28T13:50:23.777Z,55.50
2023-01-28T13:53:36.781Z,54.20
2023-01-28T13:56:09.044Z,54.00
2023-01-28T13:58:35.770Z,55.20
2023-01-28T14:01:20.746Z,54.70
2023-01-28T14:04:00.844Z,55.00
2023-01-28T14:06:39.657Z,55.10
2023-01-28T14:09:31.114Z,56.30
2023-01-28T14:12:16.591Z,56.80
2023-01-28T14:15:21.578Z,57.00
2023-01-28T14:17:56.526Z,57.30
2023-01-28T14:20:37.925Z,56.70
2023-01-28T14:23:07.225Z,56.60
2023-01-28T14:25:54.964Z,56.60
2023-01-28T14:28:41.868Z,57.30
2023-01-28T14:31:18.469Z,58.10
2023-01-28T14:33:46.873Z,58.80
2023-01-28T14:36:14.001Z,59.20
2023-01-28T14:38:43.937Z,59.50
2023-01-28T14:41:23.459Z,59.90
2023-01-28T14:43:50.731Z,60.30
2023-01-28T14:46:46.095Z,60.50
2023-01-28T14:49:36.413Z,61.20
2023-01-28T14:52:06.251Z,61.60
2023-01-28T14:55:00.350Z,61.60
2023-01-28T14:57:52.661Z,61.50
2023-01-28T15:00:26.060Z,62.30
2023-01-28T15:02:53.130Z,62.30
2023-01-28T15:05:23.591Z,62.40
2023-01-28T15:07:51.295Z,63.00
2023-01-28T15:10:24.448Z,63.50
2023-01-28T15:12:56.051Z,63.50
2023-01-28T15:15:36.594Z,63.60
2023-01-28T15:18:19.428Z,64.90
2023-01-28T15:20:49.085Z,64.70
2023-01-28T15:23:19.535Z,65.20
2023-01-28T15:25:46.509Z,65.70
2023-01-28T15:28:25.441Z,65.90
2023-01-28T15:30:52.267Z,66.50
2023-01-28T15:33:22.029Z,66.50
2023-01-28T15:35:54.206Z,66.80
2023-01-28T15:38:22.117Z,67.10
2023-01-28T15:40:54.537Z,67.20
2023-01-28T15:43:28.361Z,67.50
2023-01-28T15:45:57.359Z,67.80
2023-01-28T15:48:27.468Z,68.20
2023-01-28T15:51:07.543Z,68.50
2023-01-28T15:53:43.327Z,69.10
2023-01-28T15:56:12.330Z,69.90
2023-01-28T15:58:42.927Z,69.90
2023-01-28T16:01:09.784Z,70.30
2023-01-28T16:03:42.469Z,70.70
2023-01-28T16:06:22.021Z,71.00
2023-01-28T16:09:01.053Z,71.50
2023-01-28T16:11:34.253Z,71.90
2023-01-28T16:14:01.384Z,71.80
2023-01-28T16:16:32.275Z,71.80
2023-01-28T16:18:59.425Z,71.80
2023-01-28T16:21:32.435Z,71.90
2023-01-28T16:24:07.032Z,72.20
2023-01-28T16:26:35.936Z,72.30
2023-01-28T16:29:17.088Z,72.50
2023-01-28T16:31:44.014Z,72.70
2023-01-28T16:34:11.760Z,72.40
2023-01-28T16:36:38.853Z,72.50
2023-01-28T16:39:05.926Z,72.60
2023-01-28T16:41:44.589Z,72.80
2023-01-28T16:44:14.221Z,73.30
2023-01-28T16:46:41.436Z,73.50
2023-01-28T16:49:09.156Z,73.80
2023-01-28T16:51:38.594Z,74.00
2023-01-28T16:54:05.968Z,74.10
2023-01-28T16:56:45.031Z,74.10
2023-01-28T16:59:15.865Z,74.20
2023-01-28T17:01:43.887Z,74.30
2023-01-28T17:04:12.757Z,74.50
2023-01-28T17:06:42.977Z,74.60
2023-01-28T17:09:16.517Z,74.70
2023-01-28T17:11:43.407Z,74.80
2023-01-28T17:14:11.363Z,74.90
2023-01-28T17:16:38.954Z,75.10
2023-01-28T17:19:06.410Z,75.40
2023-01-28T17:21:33.352Z,75.50
2023-01-28T17:24:01.358Z,75.80
2023-01-28T17:26:29.143Z,76.00
2023-01-28T17:28:56.417Z,76.20
2023-01-28T17:31:24.136Z,76.60
2023-01-28T17:34:02.050Z,76.90
2023-01-28T17:36:31.114Z,77.10
2023-01-28T17:38:58.010Z,77.20
2023-01-28T17:41:24.908Z,77.40
2023-01-28T17:44:07.572Z,77.50
2023-01-28T17:46:34.545Z,77.70
2023-01-28T17:49:02.241Z,77.80
2023-01-28T17:51:29.247Z,77.90
2023-01-28T17:53:56.098Z,78.00
2023-01-28T17:56:28.362Z,78.30
2023-01-28T17:58:57.922Z,78.60
2023-01-28T18:01:26.203Z,79.00
2023-01-28T18:03:53.065Z,79.10
2023-01-28T18:06:20.066Z,79.10
2023-01-28T18:08:47.258Z,79.00
2023-01-28T18:11:16.189Z,79.00
2023-01-28T18:13:43.252Z,79.00
2023-01-28T18:16:15.197Z,79.00
2023-01-28T18:18:42.411Z,79.30
2023-01-28T18:21:54.158Z,79.50
2023-01-28T18:24:24.362Z,79.70
2023-01-28T18:26:52.319Z,79.60
2023-01-28T18:29:20.861Z,79.80
2023-01-28T18:31:49.923Z,80.00
2023-01-28T18:34:18.226Z,80.20
2023-01-28T18:36:49.503Z,80.40
2023-01-28T18:39:20.715Z,80.40
2023-01-28T18:41:47.770Z,80.40
2023-01-28T18:44:16.206Z,80.30
2023-01-28T18:46:43.648Z,80.20
2023-01-28T18:49:10.699Z,80.10
2023-01-28T18:51:38.815Z,80.20
2023-01-28T18:54:07.422Z,80.30
2023-01-28T18:56:36.394Z,80.40
2023-01-28T18:59:05.256Z,80.40
2023-01-28T19:01:35.191Z,80.50
2023-01-28T19:04:02.912Z,80.60
2023-01-28T19:06:31.889Z,80.60
2023-01-28T19:09:01.613Z,80.50
2023-01-28T19:11:30.130Z,80.60
2023-01-28T19:13:59.041Z,80.70
2023-01-28T19:16:26.411Z,80.70
2023-01-28T19:19:01.286Z,80.80
2023-01-28T19:21:29.625Z,81.00
2023-01-28T19:24:01.961Z,80.90
2023-01-28T19:26:30.793Z,80.90
2023-01-28T19:28:58.184Z,81.00
2023-01-28T19:31:26.567Z,81.20
2023-01-28T19:33:59.887Z,81.30
2023-01-28T19:36:28.869Z,81.40
2023-01-28T19:39:05.004Z,81.50
2023-01-28T19:41:31.885Z,81.70
2023-01-28T19:43:59.692Z,81.90
2023-01-28T19:46:27.354Z,81.90
2023-01-28T19:48:55.010Z,82.10
2023-01-28T19:51:22.587Z,82.30
2023-01-28T19:53:53.933Z,82.50
2023-01-28T19:56:23.026Z,82.60
2023-01-28T19:58:50.277Z,82.70
2023-01-28T20:01:21.515Z,82.70
2023-01-28T20:03:52.749Z,82.70
2023-01-28T20:06:19.617Z,82.90
2023-01-28T20:08:52.544Z,83.00
2023-01-28T20:11:20.073Z,83.00
2023-01-28T20:13:48.948Z,83.10
2023-01-28T20:16:21.685Z,83.20
2023-01-28T20:18:50.872Z,83.20
2023-01-28T20:21:21.301Z,83.90
2023-01-28T20:23:52.942Z,83.30
2023-01-28T20:26:22.749Z,83.30
2023-01-28T20:28:51.371Z,83.50
2023-01-28T20:31:19.662Z,83.50
2023-01-28T20:33:46.720Z,83.70
2023-01-28T20:36:14.870Z,83.70
2023-01-28T20:38:44.353Z,83.90
2023-01-28T20:41:17.459Z,84.00
2023-01-28T20:43:45.730Z,84.20
2023-01-28T20:46:28.133Z,84.30
2023-01-28T20:48:56.594Z,84.50
2023-01-28T20:51:26.367Z,84.70
2023-01-28T20:53:53.637Z,84.90
2023-01-28T20:56:22.488Z,85.00
2023-01-28T20:58:58.273Z,85.20
2023-01-28T21:01:27.963Z,85.30
2023-01-28T21:03:56.021Z,85.40
2023-01-28T21:06:24.680Z,85.60
2023-01-28T21:08:53.281Z,85.70
2023-01-28T21:11:22.141Z,85.80
2023-01-28T21:13:49.181Z,85.90
2023-01-28T21:16:16.730Z,86.10
2023-01-28T21:18:44.298Z,86.10
2023-01-28T21:21:18.079Z,86.20
2023-01-28T21:23:44.997Z,86.40
2023-01-28T21:26:12.304Z,86.50
2023-01-28T21:28:39.401Z,86.60
2023-01-28T21:31:11.399Z,86.90
2023-01-28T21:33:39.814Z,87.00
2023-01-28T21:36:12.093Z,87.10
2023-01-28T21:38:40.421Z,87.20
2023-01-28T21:41:08.245Z,87.50
2023-01-28T21:43:35.427Z,88.20
2023-01-28T21:46:02.869Z,87.80
2023-01-28T21:48:30.533Z,87.80
2023-01-28T21:51:23.454Z,87.80
2023-01-28T21:53:50.251Z,87.90
2023-01-28T21:56:17.621Z,88.00
2023-01-28T21:59:02.768Z,88.10
2023-01-28T22:01:29.608Z,88.20
2023-01-28T22:03:56.409Z,88.40
2023-01-28T22:06:23.191Z,88.60
2023-01-28T22:08:52.862Z,88.80
2023-01-28T22:11:20.032Z,89.00
2023-01-28T22:13:47.401Z,89.10
2023-01-28T22:16:14.495Z,89.20
2023-01-28T22:18:41.412Z,89.30
2023-01-28T22:21:11.563Z,89.30
2023-01-28T22:23:38.811Z,89.30
2023-01-28T22:26:05.731Z,89.40
2023-01-28T22:28:32.552Z,89.40
2023-01-28T22:31:11.269Z,89.40
2023-01-28T22:33:38.936Z,89.60
2023-01-28T22:36:08.801Z,89.60
2023-01-28T22:38:41.879Z,89.60
2023-01-28T22:41:11.959Z,89.70
2023-01-28T22:43:38.957Z,89.70
2023-01-28T22:46:06.543Z,89.80
2023-01-28T22:48:37.223Z,89.90
2023-01-28T22:51:07.334Z,90.00
2023-01-28T22:53:34.367Z,90.00
2023-01-28T22:56:02.636Z,90.00
2023-01-28T22:58:31.694Z,90.10
2023-01-28T23:00:58.950Z,90.10
2023-01-28T23:03:26.257Z,90.20
2023-01-28T23:06:01.268Z,90.20
2023-01-28T23:08:28.434Z,90.20
2023-01-28T23:10:59.585Z,90.30
2023-01-28T23:13:27.614Z,90.30
2023-01-28T23:16:12.908Z,90.40
2023-01-28T23:18:58.341Z,90.40
2023-01-28T23:21:46.505Z,90.40
2023-01-28T23:24:20.745Z,90.40
2023-01-28T23:26:57.196Z,90.40
2023-01-28T23:29:28.698Z,90.40
2023-01-28T23:32:06.358Z,90.50
2023-01-28T23:34:38.253Z,90.50
2023-01-28T23:37:07.056Z,90.50
2023-01-28T23:39:34.573Z,90.50
2023-01-28T23:42:18.980Z,90.60
2023-01-28T23:44:45.894Z,90.70
2023-01-28T23:47:12.861Z,90.80
2023-01-28T23:49:40.182Z,90.90
2023-01-28T23:52:07.712Z,90.90
2023-01-28T23:54:34.917Z,91.00
2023-01-28T23:57:02.236Z,91.00
2023-01-28T23:59:28.968Z,91.10
